Time;durP1;ratioP1;P1;durP2;ratioP2;P2;SDS_P1;SDS_P2;PMS_P1;PMS_P2;Temp;Humidity;BMP_temperature;BMP_pressure;BME280_temperature;BME280_humidity;BME280_pressure;Samples;Min_cycle;Max_cycle;Signal;HPM_P1;HPM_P2
2021/07/16 00:01:45;;;;;;;18.60;5.72;;;;;;;19.56;67.75;98599.06;5065859;28;20052;-90
2021/07/16 00:04:11;;;;;;;14.05;5.38;;;;;;;19.53;68.04;98599.28;5066087;28;20094;-91
2021/07/16 00:06:38;;;;;;;15.50;4.80;;;;;;;19.56;67.91;98594.56;5064518;28;20044;-91
2021/07/16 00:09:05;;;;;;;16.40;4.90;;;;;;;19.53;68.05;98594.75;5067317;28;20037;-90
2021/07/16 00:11:30;;;;;;;11.85;4.82;;;;;;;19.45;68.00;98579.09;5065654;28;20367;-89
2021/07/16 00:13:56;;;;;;;18.98;5.20;;;;;;;19.41;68.28;98577.56;5064839;28;20049;-90
2021/07/16 00:16:22;;;;;;;13.02;5.53;;;;;;;19.41;68.52;98579.34;5061177;28;20037;-90
2021/07/16 00:18:49;;;;;;;12.38;5.22;;;;;;;19.55;68.12;98592.81;5067397;28;20048;-90
2021/07/16 00:21:15;;;;;;;15.02;5.20;;;;;;;19.48;68.21;98578.88;5068277;28;20041;-90
2021/07/16 00:23:42;;;;;;;19.83;5.25;;;;;;;19.58;68.34;98592.63;5066719;28;20435;-91
2021/07/16 00:26:08;;;;;;;15.35;5.75;;;;;;;19.54;68.04;98568.63;5066715;28;20041;-90
2021/07/16 00:28:34;;;;;;;11.43;5.15;;;;;;;19.59;68.00;98574.59;5065730;28;20054;-89
2021/07/16 00:31:00;;;;;;;14.35;4.68;;;;;;;19.60;68.09;98571.78;5062370;28;20044;-90
2021/07/16 00:33:25;;;;;;;13.55;4.70;;;;;;;19.70;68.01;98578.31;5064502;28;20518;-92
2021/07/16 00:35:52;;;;;;;13.25;4.53;;;;;;;19.57;67.98;98553.09;5065854;28;20035;-92
2021/07/16 00:38:18;;;;;;;14.52;5.20;;;;;;;19.70;68.02;98578.31;5065657;28;20040;-92
2021/07/16 00:40:44;;;;;;;10.35;4.72;;;;;;;19.65;67.58;98552.59;5065466;28;20041;-90
2021/07/16 00:43:10;;;;;;;14.73;5.22;;;;;;;19.76;67.58;98570.78;5068157;28;20115;-91
2021/07/16 00:45:36;;;;;;;14.38;4.65;;;;;;;19.85;67.47;98578.25;5059745;28;20036;-91
2021/07/16 00:48:02;;;;;;;11.82;4.82;;;;;;;19.84;67.56;98573.81;5063699;28;20048;-91
2021/07/16 00:50:30;;;;;;;13.90;5.07;;;;;;;19.82;67.92;98573.06;5065091;28;20037;-91
2021/07/16 00:52:58;;;;;;;13.07;4.72;;;;;;;19.85;67.90;98568.31;5063099;28;20040;-92
2021/07/16 00:55:25;;;;;;;12.87;5.07;;;;;;;19.83;67.79;98569.41;5065889;28;20041;-88
2021/07/16 00:57:51;;;;;;;12.43;4.68;;;;;;;19.82;67.67;98573.94;5066569;28;20498;-91
2021/07/16 01:00:18;;;;;;;14.88;5.05;;;;;;;19.65;68.11;98545.38;5061568;28;20540;-90
2021/07/16 01:02:44;;;;;;;11.48;4.82;;;;;;;19.61;68.15;98551.94;5061912;28;20042;-90
2021/07/16 01:05:13;;;;;;;13.18;5.10;;;;;;;19.66;68.14;98562.41;5063232;28;20029;-89
2021/07/16 01:07:39;;;;;;;13.40;4.65;;;;;;;19.55;68.36;98557.75;5064618;28;20437;-90
2021/07/16 01:10:09;;;;;;;9.10;5.43;;;;;;;19.34;68.83;98549.25;5065444;28;20072;-89
2021/07/16 01:12:36;;;;;;;13.77;4.88;;;;;;;19.14;69.99;98558.66;5065329;28;20501;-90
2021/07/16 01:15:02;;;;;;;15.10;5.40;;;;;;;19.07;70.72;98571.66;5058161;28;20037;-90
2021/07/16 01:17:32;;;;;;;14.52;4.75;;;;;;;18.93;70.79;98551.97;5063513;28;20052;-90
2021/07/16 01:20:00;;;;;;;15.63;5.60;;;;;;;18.88;70.95;98558.50;5063431;28;20041;-91
2021/07/16 01:22:28;;;;;;;14.60;5.67;;;;;;;18.67;71.44;98547.28;5065350;28;20040;-90
2021/07/16 01:24:56;;;;;;;16.60;5.63;;;;;;;18.57;72.10;98553.34;5067060;28;20547;-90
2021/07/16 01:27:22;;;;;;;12.80;5.00;;;;;;;18.47;72.41;98559.28;5064042;28;20457;-90
2021/07/16 01:29:48;;;;;;;15.10;5.40;;;;;;;18.32;72.60;98537.84;5063438;28;20124;-89
2021/07/16 01:32:14;;;;;;;14.93;5.70;;;;;;;18.21;73.00;98534.00;5062994;28;20171;-89
2021/07/16 01:34:41;;;;;;;17.08;5.45;;;;;;;18.20;73.06;98540.34;5064170;28;20044;-90
2021/07/16 01:37:06;;;;;;;16.85;5.63;;;;;;;18.13;73.78;98546.19;5063992;28;20044;-90
2021/07/16 01:39:32;;;;;;;12.70;5.38;;;;;;;17.95;73.93;98521.28;5061824;28;20139;-89
2021/07/16 01:42:01;;;;;;;17.75;5.97;;;;;;;18.13;74.09;98556.94;5065192;28;20086;-90
2021/07/16 01:44:27;;;;;;;;;;;;;;;18.10;74.48;98549.94;5063079;28;20044;-89
2021/07/16 01:46:53;;;;;;;12.85;5.50;;;;;;;18.11;74.55;98549.00;5061786;28;19924;-90
2021/07/16 01:49:19;;;;;;;14.50;5.20;;;;;;;17.94;74.57;98533.03;5068761;28;20047;-90
2021/07/16 01:51:44;;;;;;;14.48;5.93;;;;;;;18.00;74.69;98551.44;5065176;28;20076;-90
2021/07/16 01:54:10;;;;;;;17.92;5.65;;;;;;;18.02;74.68;98546.84;5063974;28;20037;-89
2021/07/16 01:56:36;;;;;;;11.52;5.30;;;;;;;18.00;74.54;98532.63;5062481;28;20049;-90
2021/07/16 01:59:03;;;;;;;14.80;5.55;;;;;;;17.95;74.56;98518.59;5061088;28;20124;-90
2021/07/16 02:01:29;;;;;;;16.60;5.80;;;;;;;18.11;74.63;98531.97;5064077;28;20044;-91
2021/07/16 02:03:55;;;;;;;15.65;5.70;;;;;;;18.33;74.07;98550.38;5064356;28;20518;-91
2021/07/16 02:06:21;;;;;;;14.85;5.68;;;;;;;18.37;73.98;98531.22;5060246;28;20041;-90
2021/07/16 02:08:47;;;;;;;15.23;5.38;;;;;;;18.51;73.60;98527.66;5065623;28;20032;-90
2021/07/16 02:11:13;;;;;;;18.42;5.70;;;;;;;18.58;73.40;98522.75;5059975;28;20036;-90
2021/07/16 02:13:39;;;;;;;13.60;5.55;;;;;;;18.80;73.09;98533.03;5062317;28;20041;-90
2021/07/16 02:16:06;;;;;;;15.80;5.45;;;;;;;18.84;72.35;98513.88;5063779;28;20036;-90
2021/07/16 02:18:33;;;;;;;14.45;5.43;;;;;;;18.84;72.25;98508.47;5065396;28;20044;-91
2021/07/16 02:20:59;;;;;;;13.55;5.47;;;;;;;18.85;71.96;98493.22;5065171;28;20156;-91
2021/07/16 02:23:27;;;;;;;14.73;5.20;;;;;;;18.87;72.32;98497.53;5067055;28;20127;-91
2021/07/16 02:25:53;;;;;;;15.37;5.20;;;;;;;18.84;72.31;98492.31;5072680;28;20060;-90
2021/07/16 02:28:20;;;;;;;17.90;5.97;;;;;;;18.87;72.11;98496.66;5073894;28;20044;-91
2021/07/16 02:30:47;;;;;;;16.20;5.18;;;;;;;18.83;72.45;98504.06;5066737;28;20045;-91
2021/07/16 02:33:14;;;;;;;13.80;5.28;;;;;;;18.62;72.59;98487.44;5067572;28;20044;-89
2021/07/16 02:35:41;;;;;;;11.75;5.57;;;;;;;18.39;73.54;98486.22;5065292;28;20041;-90
2021/07/16 02:38:07;;;;;;;15.85;6.05;;;;;;;18.47;73.63;98512.66;5065667;28;20130;-90
2021/07/16 02:40:34;;;;;;;13.95;4.75;;;;;;;18.39;73.59;98501.50;5067076;28;20057;-90
2021/07/16 02:43:00;;;;;;;14.98;5.30;;;;;;;18.24;74.13;98498.81;5065849;28;20036;-89
2021/07/16 02:45:26;;;;;;;10.95;5.07;;;;;;;18.03;74.66;98473.25;5061110;28;20037;-90
2021/07/16 02:47:52;;;;;;;12.02;5.75;;;;;;;18.10;74.55;98490.75;5068671;28;20037;-90
2021/07/16 02:50:23;;;;;;;14.70;5.25;;;;;;;18.14;74.53;98488.72;5065756;28;20041;-91
2021/07/16 02:52:49;;;;;;;14.55;5.32;;;;;;;18.04;75.15;98508.16;5064450;28;20401;-90
2021/07/16 02:55:15;;;;;;;15.88;5.75;;;;;;;17.91;75.42;98479.38;5065894;28;20045;-90
2021/07/16 02:57:41;;;;;;;15.00;6.15;;;;;;;17.92;75.32;98486.50;5064507;28;20219;-90
2021/07/16 03:00:10;;;;;;;19.42;5.72;;;;;;;17.92;75.83;98508.91;5061481;28;20055;-90
2021/07/16 03:02:40;;;;;;;12.07;6.00;;;;;;;17.91;76.13;98506.28;5064008;28;20032;-90
2021/07/16 03:05:07;;;;;;;18.55;5.97;;;;;;;17.65;76.49;98471.94;5063585;28;20044;-89
2021/07/16 03:07:35;;;;;;;14.23;5.88;;;;;;;17.73;76.46;98484.03;5065261;28;20183;-90
2021/07/16 03:10:01;;;;;;;12.70;5.45;;;;;;;17.84;76.67;98490.53;5066180;28;20079;-89
2021/07/16 03:12:26;;;;;;;17.85;5.38;;;;;;;17.82;76.35;98483.50;5066214;28;20029;-91
2021/07/16 03:14:52;;;;;;;14.38;5.47;;;;;;;17.78;76.00;98466.69;5064242;28;20037;-90
2021/07/16 03:17:18;;;;;;;17.67;6.38;;;;;;;17.93;76.46;98474.78;5064407;28;20043;-90
2021/07/16 03:19:44;;;;;;;14.30;5.45;;;;;;;17.95;76.27;98476.41;5066328;28;20094;-91
2021/07/16 03:22:12;;;;;;;18.02;5.82;;;;;;;18.07;76.26;98482.88;5067202;28;20492;-90
2021/07/16 03:24:39;;;;;;;13.85;5.70;;;;;;;18.16;75.84;98495.75;5063641;28;20083;-91
2021/07/16 03:27:05;;;;;;;20.27;5.85;;;;;;;18.32;74.96;98490.25;5065133;28;20489;-90
2021/07/16 03:29:31;;;;;;;12.63;5.40;;;;;;;18.34;74.66;98476.69;5063628;28;20033;-90
2021/07/16 03:31:57;;;;;;;15.02;5.85;;;;;;;18.32;74.12;98468.72;5063509;28;20051;-90
2021/07/16 03:34:23;;;;;;;11.05;5.65;;;;;;;18.37;74.06;98469.31;5065096;28;20060;-91
2021/07/16 03:36:49;;;;;;;11.73;6.07;;;;;;;18.43;74.16;98486.88;5066778;28;20033;-90
2021/07/16 03:39:15;;;;;;;18.55;6.65;;;;;;;18.40;73.70;98493.34;5066904;28;20055;-90
2021/07/16 03:41:43;;;;;;;16.05;6.00;;;;;;;18.34;73.74;98484.78;5069619;28;20036;-90
2021/07/16 03:44:09;;;;;;;16.98;6.22;;;;;;;18.45;73.85;98503.81;5066467;28;20059;-90
2021/07/16 03:46:35;;;;;;;15.45;7.97;;;;;;;18.43;74.14;98497.66;5068747;28;20833;-90
2021/07/16 03:49:06;;;;;;;18.42;6.85;;;;;;;18.43;73.96;98503.03;5067112;28;20047;-89
2021/07/16 03:51:32;;;;;;;12.25;6.13;;;;;;;18.54;73.89;98499.66;5065779;28;20071;-89
2021/07/16 03:53:58;;;;;;;20.50;6.65;;;;;;;18.55;73.67;98491.50;5065811;28;20059;-90
2021/07/16 03:56:23;;;;;;;14.50;5.78;;;;;;;18.55;73.64;98486.09;5064434;28;20541;-91
2021/07/16 03:58:51;;;;;;;11.55;6.05;;;;;;;18.70;73.57;98502.25;5065530;28;20037;-90
2021/07/16 04:01:17;;;;;;;15.18;6.28;;;;;;;18.64;73.36;98482.81;5059310;28;20036;-90
2021/07/16 04:03:42;;;;;;;15.75;5.68;;;;;;;18.75;72.93;98487.50;5064768;28;20837;-89
2021/07/16 04:06:09;;;;;;;15.05;5.80;;;;;;;18.74;72.64;98472.31;5065306;28;20119;-89
2021/07/16 04:08:37;;;;;;;16.48;6.28;;;;;;;18.95;72.46;98494.31;5066376;28;20098;-90
2021/07/16 04:11:04;;;;;;;16.45;6.03;;;;;;;19.05;72.33;98491.88;5066054;28;20033;-89
2021/07/16 04:13:30;;;;;;;13.80;5.63;;;;;;;19.12;71.43;98489.66;5062328;28;20552;-90
2021/07/16 04:15:57;;;;;;;14.55;5.15;;;;;;;19.18;71.11;98492.78;5062959;28;20045;-91
2021/07/16 04:18:23;;;;;;;11.75;5.70;;;;;;;19.18;70.86;98494.63;5069002;28;20095;-90
2021/07/16 04:20:49;;;;;;;15.35;6.75;;;;;;;19.27;70.87;98499.41;5062506;28;20032;-90
2021/07/16 04:23:15;;;;;;;21.52;6.25;;;;;;;19.07;70.45;98466.56;5064651;28;20040;-89
2021/07/16 04:25:41;;;;;;;17.65;5.43;;;;;;;19.28;70.64;98491.22;5060197;28;20078;-90
2021/07/16 04:28:06;;;;;;;14.35;5.47;;;;;;;19.32;70.36;98507.19;5064462;28;20032;-91
2021/07/16 04:30:33;;;;;;;15.52;5.40;;;;;;;19.23;70.34;98490.66;5064680;28;20041;-90
2021/07/16 04:33:02;;;;;;;19.83;7.32;;;;;;;19.43;70.12;98513.59;5059182;28;20494;-90
2021/07/16 04:35:29;;;;;;;13.85;6.40;;;;;;;19.48;69.73;98518.69;5059533;28;20037;-90
2021/07/16 04:37:55;;;;;;;19.02;8.35;;;;;;;19.41;70.13;98509.25;5067857;28;20071;-90
2021/07/16 04:40:22;;;;;;;12.98;5.88;;;;;;;19.39;70.30;98500.44;5063648;28;20028;-90
2021/07/16 04:42:49;;;;;;;12.63;5.72;;;;;;;19.32;70.14;98485.59;5066443;28;20044;-90
2021/07/16 04:45:14;;;;;;;15.70;6.32;;;;;;;19.32;70.53;98509.88;5059871;28;20060;-88
2021/07/16 04:47:41;;;;;;;13.43;6.28;;;;;;;19.06;71.22;98483.72;5064658;28;20061;-89
2021/07/16 04:50:10;;;;;;;16.73;5.93;;;;;;;19.26;70.90;98506.63;5062825;28;20111;-90
2021/07/16 04:52:40;;;;;;;19.63;6.05;;;;;;;19.23;71.34;98501.44;5061060;28;20135;-90
2021/07/16 04:55:07;;;;;;;13.68;6.25;;;;;;;19.41;70.66;98506.56;5064316;28;20036;-90
2021/07/16 04:57:32;;;;;;;20.30;6.13;;;;;;;19.34;70.31;98486.38;5064945;28;20045;-90
2021/07/16 04:59:58;;;;;;;11.80;5.63;;;;;;;19.40;70.94;98505.69;5060191;28;20397;-89
2021/07/16 05:02:24;;;;;;;16.83;5.82;;;;;;;19.26;70.84;98493.16;5065148;28;20039;-91
2021/07/16 05:04:50;;;;;;;13.80;5.95;;;;;;;19.58;70.09;98519.78;5061574;28;20118;-89
2021/07/16 05:07:17;;;;;;;15.57;5.90;;;;;;;19.57;70.47;98518.03;5063852;28;20068;-90
2021/07/16 05:09:43;;;;;;;15.05;5.93;;;;;;;19.74;69.58;98521.47;5062778;28;20051;-89
2021/07/16 05:12:09;;;;;;;14.20;7.05;;;;;;;19.64;69.57;98481.59;5066869;28;20036;-90
2021/07/16 05:14:35;;;;;;;15.55;6.20;;;;;;;19.90;69.25;98514.88;5060887;28;20048;-91
2021/07/16 05:17:01;;;;;;;11.88;5.25;;;;;;;19.90;68.22;98509.50;5061129;28;20048;-90
2021/07/16 05:19:26;;;;;;;16.10;6.20;;;;;;;19.98;68.02;98522.47;5065287;28;20028;-90
2021/07/16 05:21:52;;;;;;;14.57;6.03;;;;;;;19.68;68.63;98493.03;5062731;28;20048;-89
2021/07/16 05:24:23;;;;;;;14.40;6.00;;;;;;;19.55;69.46;98497.53;5065550;28;20040;-90
2021/07/16 05:26:49;;;;;;;20.23;7.53;;;;;;;19.26;70.95;98501.25;5067288;28;20069;-91
2021/07/16 05:29:14;;;;;;;18.95;6.50;;;;;;;19.27;70.99;98504.78;5061870;28;20041;-91
2021/07/16 05:31:40;;;;;;;16.25;6.30;;;;;;;19.38;71.22;98514.88;5064855;28;20020;-92
2021/07/16 05:34:06;;;;;;;21.48;6.22;;;;;;;19.57;70.55;98528.84;5065923;28;20102;-90
2021/07/16 05:36:32;;;;;;;17.25;6.03;;;;;;;19.70;69.76;98513.56;5064492;28;20049;-91
2021/07/16 05:39:03;;;;;;;14.10;6.97;;;;;;;19.86;68.60;98508.00;5065852;28;20036;-92
2021/07/16 05:41:31;;;;;;;20.65;6.18;;;;;;;19.88;68.30;98497.94;5071410;28;20041;-92
2021/07/16 05:43:56;;;;;;;19.65;6.20;;;;;;;19.97;68.49;98511.75;5064573;28;20509;-91
2021/07/16 05:46:23;;;;;;;17.67;6.75;;;;;;;20.06;68.27;98525.50;5060703;28;20045;-90
2021/07/16 05:48:49;;;;;;;17.42;6.75;;;;;;;20.04;68.14;98526.59;5061667;28;20055;-92
2021/07/16 05:51:15;;;;;;;18.08;7.10;;;;;;;19.87;68.93;98523.22;5058162;28;20040;-91
2021/07/16 05:53:41;;;;;;;16.85;6.32;;;;;;;20.04;67.63;98521.19;5060116;28;20049;-90
2021/07/16 05:56:07;;;;;;;20.67;6.75;;;;;;;20.08;67.53;98517.28;5063883;28;20044;-90
2021/07/16 05:58:34;;;;;;;11.98;5.78;;;;;;;20.23;67.54;98536.94;5067603;28;20067;-91
2021/07/16 06:01:00;;;;;;;10.75;5.43;;;;;;;20.17;66.94;98537.34;5066735;28;20087;-90
2021/07/16 06:03:26;;;;;;;16.02;6.50;;;;;;;20.13;67.05;98539.44;5060677;28;20457;-91
2021/07/16 06:05:52;;;;;;;13.90;6.40;;;;;;;19.99;66.67;98528.72;5061005;28;20055;-92
2021/07/16 06:08:18;;;;;;;20.05;6.60;;;;;;;19.90;66.66;98506.78;5065576;28;20063;-92
2021/07/16 06:10:43;;;;;;;13.40;6.18;;;;;;;19.93;66.28;98523.75;5069454;28;20482;-91
2021/07/16 06:13:09;;;;;;;16.35;6.47;;;;;;;19.65;66.99;98514.84;5064133;28;20041;-92
2021/07/16 06:15:37;;;;;;;14.95;6.43;;;;;;;19.89;66.15;98532.06;5064148;28;20037;-93
2021/07/16 06:18:03;;;;;;;15.77;6.50;;;;;;;19.79;66.93;98530.97;5065697;28;20054;-91
2021/07/16 06:20:29;;;;;;;13.68;6.35;;;;;;;19.73;66.74;98519.72;5066575;28;20041;-92
2021/07/16 06:22:55;;;;;;;16.17;6.85;;;;;;;19.74;66.18;98503.44;5069470;28;20047;-92
2021/07/16 06:25:21;;;;;;;18.60;6.30;;;;;;;19.91;65.35;98510.38;5069805;28;20080;-92
2021/07/16 06:27:47;;;;;;;14.57;6.15;;;;;;;19.89;65.60;98498.81;5068084;28;20044;-93
2021/07/16 06:30:14;;;;;;;13.65;6.00;;;;;;;19.95;66.13;98508.31;5070777;28;20059;-91
2021/07/16 06:32:41;;;;;;;13.23;6.13;;;;;;;19.98;65.62;98505.41;5070244;28;20052;-91
2021/07/16 06:35:09;;;;;;;16.45;5.72;;;;;;;20.14;65.80;98510.59;5070698;28;20036;-92
2021/07/16 06:37:35;;;;;;;14.63;5.47;;;;;;;20.25;65.20;98510.69;5069997;28;20045;-91
2021/07/16 06:40:01;;;;;;;16.40;5.88;;;;;;;20.38;64.51;98513.38;5075278;28;20066;-90
2021/07/16 06:42:28;;;;;;;13.90;5.55;;;;;;;20.44;64.34;98527.31;5066638;28;20040;-91
2021/07/16 06:44:54;;;;;;;12.40;6.20;;;;;;;20.55;64.17;98518.44;5062145;28;20040;-91
2021/07/16 06:47:20;;;;;;;17.20;5.80;;;;;;;20.55;64.23;98512.19;5070620;28;20489;-90
2021/07/16 06:49:50;;;;;;;13.85;4.95;;;;;;;20.57;64.72;98530.03;5074081;28;20047;-91
2021/07/16 06:52:15;;;;;;;13.13;4.93;;;;;;;20.62;64.52;98532.41;5068907;28;20505;-91
2021/07/16 06:54:41;;;;;;;18.30;6.05;;;;;;;20.51;64.70;98503.44;5066030;28;20041;-91
2021/07/16 06:57:07;;;;;;;19.75;7.20;;;;;;;20.57;64.55;98508.44;5066524;28;20097;-92
2021/07/16 06:59:33;;;;;;;12.90;5.80;;;;;;;20.79;64.40;98531.19;5062984;28;20156;-91
2021/07/16 07:01:59;;;;;;;14.90;6.05;;;;;;;20.65;64.68;98499.78;5064606;28;20401;-92
2021/07/16 07:04:25;;;;;;;14.43;6.15;;;;;;;20.70;65.27;98524.63;5063785;28;20036;-91
2021/07/16 07:06:52;;;;;;;11.60;5.55;;;;;;;20.81;64.29;98499.50;5069463;28;20040;-93
2021/07/16 07:09:18;;;;;;;15.02;5.45;;;;;;;21.11;63.41;98501.78;5064236;28;20075;-92
2021/07/16 07:11:44;;;;;;;16.77;5.88;;;;;;;21.30;62.63;98490.47;5065058;28;20867;-90
2021/07/16 07:14:10;;;;;;;17.88;5.95;;;;;;;21.62;61.62;98517.81;5067804;28;20133;-92
2021/07/16 07:16:36;;;;;;;19.20;5.78;;;;;;;21.72;61.02;98512.53;5060822;28;20040;-91
2021/07/16 07:19:02;;;;;;;17.92;5.78;;;;;;;21.67;60.77;98484.97;5066152;28;20061;-91
2021/07/16 07:21:28;;;;;;;17.20;6.15;;;;;;;21.71;61.26;98508.97;5069537;28;20094;-92
2021/07/16 07:23:56;;;;;;;11.82;5.72;;;;;;;21.60;61.33;98494.53;5070973;28;20425;-90
2021/07/16 07:26:22;;;;;;;17.73;6.05;;;;;;;21.76;61.49;98511.31;5068500;28;20112;-91
2021/07/16 07:28:48;;;;;;;14.77;5.82;;;;;;;21.68;61.65;98506.47;5072220;28;20036;-91
2021/07/16 07:31:14;;;;;;;16.08;6.03;;;;;;;21.67;61.89;98506.63;5065566;28;20090;-91
2021/07/16 07:33:39;;;;;;;24.70;7.78;;;;;;;21.56;61.67;98495.72;5065216;28;20041;-92
2021/07/16 07:36:05;;;;;;;15.30;5.90;;;;;;;21.60;61.42;98489.09;5065117;28;20123;-91
2021/07/16 07:38:32;;;;;;;17.88;6.53;;;;;;;21.78;61.01;98506.66;5069915;28;20064;-92
2021/07/16 07:41:00;;;;;;;21.45;6.90;;;;;;;22.01;60.53;98496.75;5065388;28;20046;-92
2021/07/16 07:43:26;;;;;;;12.75;5.60;;;;;;;22.22;59.93;98514.97;5067708;28;20037;-89
2021/07/16 07:45:51;;;;;;;14.82;5.70;;;;;;;22.18;59.51;98511.66;5070426;28;20047;-91
2021/07/16 07:48:17;;;;;;;16.45;6.38;;;;;;;22.30;58.37;98491.75;5067473;28;20046;-90
2021/07/16 07:50:44;;;;;;;13.20;5.30;;;;;;;22.48;57.87;98489.41;5065210;28;20037;-93
2021/07/16 07:53:10;;;;;;;15.70;5.90;;;;;;;22.68;57.48;98505.91;5064826;28;20041;-91
2021/07/16 07:55:36;;;;;;;15.20;6.28;;;;;;;22.83;57.56;98501.09;5073072;28;20040;-91
2021/07/16 07:58:10;;;;;;;12.50;5.45;;;;;;;22.97;56.00;98495.41;5068992;28;20049;-91
2021/07/16 08:00:36;;;;;;;15.60;5.57;;;;;;;23.20;55.46;98482.66;5072887;28;20070;-92
2021/07/16 08:03:01;;;;;;;14.00;5.15;;;;;;;23.71;54.42;98490.09;5068375;28;20040;-91
2021/07/16 08:05:27;;;;;;;12.63;4.93;;;;;;;24.02;52.56;98470.34;5078451;28;20041;-90
2021/07/16 08:07:53;;;;;;;12.77;6.00;;;;;;;24.24;51.94;98477.47;5070085;28;20045;-89
2021/07/16 08:10:22;;;;;;;12.10;5.38;;;;;;;23.65;53.64;98455.34;5066525;28;20601;-90
2021/07/16 08:12:49;;;;;;;11.95;4.90;;;;;;;23.73;52.50;98457.41;5075121;28;20057;-92
2021/07/16 08:15:23;;;;;;;9.98;4.93;;;;;;;24.05;51.08;98462.78;5075911;28;20028;-92
2021/07/16 08:17:49;;;;;;;12.15;4.57;;;;;;;24.53;49.79;98464.06;5074289;28;20040;-91
2021/07/16 08:20:15;;;;;;;11.13;4.53;;;;;;;24.73;49.13;98454.09;5069366;28;20042;-91
2021/07/16 08:22:42;;;;;;;11.75;4.85;;;;;;;25.09;47.38;98466.19;5073149;28;20040;-89
2021/07/16 08:25:09;;;;;;;14.63;4.90;;;;;;;25.38;47.69;98460.81;5065029;28;20102;-91
2021/07/16 08:27:35;;;;;;;19.90;5.25;;;;;;;25.61;46.11;98450.50;5063891;28;20048;-91
2021/07/16 08:30:01;;;;;;;11.50;4.57;;;;;;;24.91;47.27;98452.41;5062383;28;20062;-91
2021/07/16 08:32:28;;;;;;;9.27;4.60;;;;;;;25.07;47.28;98431.94;5067294;28;20048;-91
2021/07/16 08:34:54;;;;;;;12.05;5.28;;;;;;;25.36;46.92;98462.81;5067669;28;20441;-90
2021/07/16 08:37:20;;;;;;;11.90;4.57;;;;;;;25.37;46.17;98452.75;5061852;28;20037;-89
2021/07/16 08:39:46;;;;;;;11.88;4.47;;;;;;;25.53;46.81;98434.00;5063357;28;20093;-92
2021/07/16 08:42:14;;;;;;;13.85;5.00;;;;;;;25.79;45.96;98442.44;5063889;28;20087;-91
2021/07/16 08:44:43;;;;;;;13.98;4.90;;;;;;;26.02;44.44;98450.28;5063981;28;20096;-92
2021/07/16 08:47:10;;;;;;;10.65;5.05;;;;;;;25.87;45.10;98451.72;5064490;28;20040;-92
2021/07/16 08:49:39;;;;;;;9.52;4.55;;;;;;;26.10;43.32;98446.84;5059491;28;20040;-91
2021/07/16 08:52:06;;;;;;;10.23;4.30;;;;;;;26.39;43.26;98441.25;5065262;28;20036;-91
2021/07/16 08:54:32;;;;;;;11.10;4.80;;;;;;;26.68;43.08;98451.25;5062671;28;20036;-91
2021/07/16 08:56:59;;;;;;;15.43;4.90;;;;;;;26.54;42.68;98441.63;5062485;28;20088;-91
2021/07/16 08:59:24;;;;;;;8.93;4.47;;;;;;;26.25;44.29;98444.50;5063635;28;20064;-90
2021/07/16 09:01:51;;;;;;;13.15;4.55;;;;;;;26.21;43.05;98427.56;5063699;28;20441;-91
2021/07/16 09:04:22;;;;;;;10.23;4.78;;;;;;;26.15;43.31;98420.84;5062522;28;20378;-93
2021/07/16 09:06:51;;;;;;;8.13;4.30;;;;;;;26.02;44.25;98423.91;5060820;28;20048;-91
2021/07/16 09:09:19;;;;;;;10.95;4.40;;;;;;;26.15;43.47;98428.16;5070666;28;20067;-92
2021/07/16 09:11:47;;;;;;;8.25;3.92;;;;;;;26.26;42.95;98399.88;5060356;28;20415;-91
2021/07/16 09:14:21;;;;;;;8.73;3.80;;;;;;;26.19;42.63;98416.81;5065981;28;20049;-92
2021/07/16 09:16:59;;;;;;;10.85;4.32;;;;;;;26.39;42.21;98408.56;5068026;28;20048;-92
2021/07/16 09:19:36;;;;;;;8.50;4.60;;;;;;;26.58;42.18;98427.56;5065273;28;20045;-91
2021/07/16 09:22:07;;;;;;;11.10;4.00;;;;;;;26.79;41.89;98424.59;5068753;28;20041;-93
2021/07/16 09:24:33;;;;;;;15.63;4.60;;;;;;;26.93;41.17;98420.47;5065321;28;20037;-93
2021/07/16 09:26:59;;;;;;;11.07;4.03;;;;;;;25.47;44.36;98426.41;5062883;28;20051;-92
2021/07/16 09:29:30;;;;;;;9.55;4.45;;;;;;;25.93;44.84;98413.88;5061783;28;20063;-91
2021/07/16 09:32:04;;;;;;;8.00;4.30;;;;;;;26.28;42.65;98423.22;5064432;28;20040;-91
2021/07/16 09:34:29;;;;;;;9.93;4.32;;;;;;;26.39;41.46;98417.63;5069910;28;20048;-91
2021/07/16 09:36:57;;;;;;;13.45;4.28;;;;;;;26.72;41.12;98404.41;5072724;28;20048;-90
2021/07/16 09:39:25;;;;;;;8.77;4.47;;;;;;;26.60;40.95;98427.44;5066283;28;20082;-93
2021/07/16 09:41:53;;;;;;;13.32;4.13;;;;;;;26.22;41.96;98424.72;5073500;28;20065;-93
2021/07/16 09:44:28;;;;;;;12.53;4.50;;;;;;;26.79;40.66;98412.84;5067536;28;20037;-92
2021/07/16 09:47:10;;;;;;;8.55;4.40;;;;;;;26.36;41.99;98420.63;5066727;28;20044;-94
2021/07/16 09:49:36;;;;;;;9.07;4.20;;;;;;;26.49;41.15;98395.75;5064562;28;20052;-92
2021/07/16 09:52:10;;;;;;;9.50;4.20;;;;;;;26.74;41.01;98405.13;5064956;28;20103;-93
2021/07/16 09:54:38;;;;;;;9.48;4.30;;;;;;;26.19;41.95;98405.06;5067722;28;20048;-90
2021/07/16 09:57:04;;;;;;;10.27;4.15;;;;;;;26.52;40.61;98392.69;5068105;28;20044;-91
2021/07/16 09:59:30;;;;;;;7.90;4.03;;;;;;;27.01;39.91;98387.81;5067279;28;20072;-90
2021/07/16 10:01:57;;;;;;;8.70;3.83;;;;;;;27.50;38.96;98406.56;5065255;28;20037;-92
2021/07/16 10:07:17;;;;;;;7.30;4.43;;;;;;;26.74;40.12;98396.94;5084653;27;20382;-91
2021/07/16 10:09:43;;;;;;;12.65;4.47;;;;;;;26.77;39.60;98401.22;5086378;28;20040;-91
2021/07/16 10:12:09;;;;;;;8.65;4.30;;;;;;;26.49;40.52;98412.09;5079243;28;20071;-89
2021/07/16 10:14:36;;;;;;;8.45;4.13;;;;;;;26.62;40.39;98418.09;5085455;28;20044;-89
2021/07/16 10:17:02;;;;;;;11.38;4.60;;;;;;;26.88;40.00;98413.78;5087063;28;20036;-90
2021/07/16 10:19:28;;;;;;;11.48;4.40;;;;;;;27.16;39.19;98407.25;5078809;28;20041;-90
2021/07/16 10:21:54;;;;;;;9.63;4.32;;;;;;;27.63;37.51;98387.03;5081152;28;20082;-90
2021/07/16 10:24:24;;;;;;;11.70;4.85;;;;;;;28.30;36.26;98398.25;5085749;28;20036;-90
2021/07/16 10:26:50;;;;;;;12.68;4.60;;;;;;;27.71;37.28;98400.75;5088787;28;20036;-92
2021/07/16 10:29:37;;;;;;;9.00;4.00;;;;;;;27.78;37.57;98393.63;5086896;28;20098;-89
2021/07/16 10:32:03;;;;;;;10.13;3.95;;;;;;;27.90;36.98;98386.06;5084640;28;20493;-92
2021/07/16 10:34:34;;;;;;;13.20;4.30;;;;;;;28.25;36.51;98370.53;5085808;28;20865;-91
2021/07/16 10:37:03;;;;;;;6.75;3.70;;;;;;;28.38;34.94;98378.28;5084712;28;20044;-92
2021/07/16 10:39:41;;;;;;;8.73;4.68;;;;;;;27.78;37.04;98387.28;5081650;28;20036;-91
2021/07/16 10:42:39;;;;;;;9.77;4.10;;;;;;;27.42;37.74;98390.09;5076569;28;20401;-90
2021/07/16 10:45:07;;;;;;;9.30;3.80;;;;;;;26.92;37.87;98368.81;5080505;28;20041;-92
2021/07/16 10:47:34;;;;;;;7.32;3.85;;;;;;;26.95;37.49;98366.59;5076082;28;20136;-92
2021/07/16 10:50:01;;;;;;;7.15;3.75;;;;;;;26.93;37.64;98370.50;5079195;28;20178;-91
2021/07/16 10:52:41;;;;;;;7.80;3.60;;;;;;;26.87;37.46;98373.84;5082114;28;20040;-90
2021/07/16 10:55:09;;;;;;;7.00;3.67;;;;;;;27.36;37.90;98374.34;5077258;28;20033;-91
2021/07/16 10:57:39;;;;;;;6.10;3.67;;;;;;;27.05;38.01;98361.94;5087857;28;20044;-90
2021/07/16 11:00:06;;;;;;;6.97;3.63;;;;;;;28.05;36.16;98340.69;5079234;28;20140;-91
2021/07/16 11:02:46;;;;;;;8.73;3.65;;;;;;;28.18;35.58;98351.19;5088146;28;20033;-92
2021/07/16 11:05:49;;;;;;;10.30;4.18;;;;;;;28.17;35.75;98352.22;5082730;28;20048;-91
2021/07/16 11:08:50;;;;;;;7.60;4.10;;;;;;;28.56;35.41;98343.50;5085937;28;20437;-91
2021/07/16 11:11:18;;;;;;;8.63;4.40;;;;;;;28.77;34.88;98336.72;5084727;28;20044;-91
2021/07/16 11:13:45;;;;;;;7.30;3.80;;;;;;;29.31;33.68;98330.81;5084712;28;20119;-90
2021/07/16 11:16:43;;;;;;;6.57;3.70;;;;;;;28.58;34.74;98333.25;5078202;28;20072;-91
2021/07/16 11:19:23;;;;;;;10.32;3.83;;;;;;;28.44;35.61;98333.84;5070116;28;20040;-90
2021/07/16 11:21:59;;;;;;;8.20;4.00;;;;;;;28.50;35.92;98316.81;5067644;28;20105;-92
2021/07/16 11:24:27;;;;;;;11.48;4.40;;;;;;;28.45;36.04;98321.88;5066044;28;20112;-91
2021/07/16 11:26:56;;;;;;;10.17;3.90;;;;;;;27.98;35.70;98306.84;5074052;28;20051;-92
2021/07/16 11:29:24;;;;;;;7.30;3.70;;;;;;;27.37;35.62;98307.78;5074010;28;20277;-91
2021/07/16 11:32:00;;;;;;;8.57;3.83;;;;;;;26.91;36.51;98309.78;5064016;28;20071;-92